sensor_id;sensor_type;location;lat;lon;timestamp;temperature;humidity
71177;DHT22;58877;51.992;4.504;2022-10-31T00:00:20;14.28;79.98
71177;DHT22;58877;51.992;4.504;2022-10-31T00:02:46;14.30;80.09
71177;DHT22;58877;51.992;4.504;2022-10-31T00:05:11;14.28;80.02
71177;DHT22;58877;51.992;4.504;2022-10-31T00:07:37;14.24;80.20
71177;DHT22;58877;51.992;4.504;2022-10-31T00:10:02;14.18;80.49
71177;DHT22;58877;51.992;4.504;2022-10-31T00:12:28;14.20;80.43
71177;DHT22;58877;51.992;4.504;2022-10-31T00:14:54;14.20;80.61
71177;DHT22;58877;51.992;4.504;2022-10-31T00:17:19;14.21;80.45
71177;DHT22;58877;51.992;4.504;2022-10-31T00:19:45;14.24;80.39
71177;DHT22;58877;51.992;4.504;2022-10-31T00:22:10;14.33;80.32
71177;DHT22;58877;51.992;4.504;2022-10-31T00:24:36;14.34;80.10
71177;DHT22;58877;51.992;4.504;2022-10-31T00:27:01;14.34;80.01
71177;DHT22;58877;51.992;4.504;2022-10-31T00:29:27;14.35;79.94
71177;DHT22;58877;51.992;4.504;2022-10-31T00:31:53;14.37;79.91
71177;DHT22;58877;51.992;4.504;2022-10-31T00:37:05;14.28;79.94
71177;DHT22;58877;51.992;4.504;2022-10-31T00:39:30;14.23;80.15
71177;DHT22;58877;51.992;4.504;2022-10-31T00:41:56;14.18;80.25
71177;DHT22;58877;51.992;4.504;2022-10-31T00:44:22;14.18;80.26
71177;DHT22;58877;51.992;4.504;2022-10-31T00:46:47;14.18;80.33
71177;DHT22;58877;51.992;4.504;2022-10-31T00:49:13;14.16;80.36
71177;DHT22;58877;51.992;4.504;2022-10-31T00:51:39;14.18;80.28
71177;DHT22;58877;51.992;4.504;2022-10-31T00:54:04;14.16;80.63
71177;DHT22;58877;51.992;4.504;2022-10-31T00:56:30;14.16;80.63
71177;DHT22;58877;51.992;4.504;2022-10-31T00:58:55;14.11;80.68
71177;DHT22;58877;51.992;4.504;2022-10-31T01:01:21;14.14;80.74
71177;DHT22;58877;51.992;4.504;2022-10-31T01:03:46;14.17;80.45
71177;DHT22;58877;51.992;4.504;2022-10-31T01:06:13;14.10;80.37
71177;DHT22;58877;51.992;4.504;2022-10-31T01:08:42;14.04;80.57
71177;DHT22;58877;51.992;4.504;2022-10-31T01:11:15;14.04;80.83
71177;DHT22;58877;51.992;4.504;2022-10-31T01:13:42;14.01;80.88
71177;DHT22;58877;51.992;4.504;2022-10-31T01:16:11;14.01;80.90
71177;DHT22;58877;51.992;4.504;2022-10-31T01:18:38;13.94;80.74
71177;DHT22;58877;51.992;4.504;2022-10-31T01:23:35;13.76;80.98
71177;DHT22;58877;51.992;4.504;2022-10-31T01:26:08;13.74;81.05
71177;DHT22;58877;51.992;4.504;2022-10-31T01:28:36;13.71;81.16
71177;DHT22;58877;51.992;4.504;2022-10-31T01:31:05;13.73;81.30
71177;DHT22;58877;51.992;4.504;2022-10-31T01:33:31;13.73;81.25
71177;DHT22;58877;51.992;4.504;2022-10-31T01:35:57;13.65;81.06
71177;DHT22;58877;51.992;4.504;2022-10-31T01:38:26;13.60;81.23
71177;DHT22;58877;51.992;4.504;2022-10-31T01:40:52;13.56;81.40
71177;DHT22;58877;51.992;4.504;2022-10-31T01:43:18;13.60;81.91
71177;DHT22;58877;51.992;4.504;2022-10-31T01:45:53;13.56;81.78
71177;DHT22;58877;51.992;4.504;2022-10-31T01:48:24;13.53;82.06
71177;DHT22;58877;51.992;4.504;2022-10-31T01:50:54;13.62;82.05
71177;DHT22;58877;51.992;4.504;2022-10-31T01:53:20;13.60;81.89
71177;DHT22;58877;51.992;4.504;2022-10-31T01:55:46;13.60;82.01
71177;DHT22;58877;51.992;4.504;2022-10-31T01:58:26;13.59;81.95
71177;DHT22;58877;51.992;4.504;2022-10-31T02:00:57;13.53;81.87
71177;DHT22;58877;51.992;4.504;2022-10-31T02:03:25;13.45;81.72
71177;DHT22;58877;51.992;4.504;2022-10-31T02:05:54;13.35;81.77
71177;DHT22;58877;51.992;4.504;2022-10-31T02:08:31;13.30;82.04
71177;DHT22;58877;51.992;4.504;2022-10-31T02:11:01;13.29;82.14
71177;DHT22;58877;51.992;4.504;2022-10-31T02:13:29;13.25;82.18
71177;DHT22;58877;51.992;4.504;2022-10-31T02:15:57;13.18;81.81
71177;DHT22;58877;51.992;4.504;2022-10-31T02:18:27;13.12;81.99
71177;DHT22;58877;51.992;4.504;2022-10-31T02:21:28;13.04;82.02
71177;DHT22;58877;51.992;4.504;2022-10-31T02:26:57;13.15;82.77
71177;DHT22;58877;51.992;4.504;2022-10-31T02:32:09;13.18;83.19
71177;DHT22;58877;51.992;4.504;2022-10-31T02:34:58;13.08;82.55
71177;DHT22;58877;51.992;4.504;2022-10-31T02:37:50;12.89;82.25
71177;DHT22;58877;51.992;4.504;2022-10-31T02:43:04;12.74;82.61
71177;DHT22;58877;51.992;4.504;2022-10-31T02:45:41;12.58;82.02
71177;DHT22;58877;51.992;4.504;2022-10-31T02:48:16;12.44;82.21
71177;DHT22;58877;51.992;4.504;2022-10-31T02:50:51;12.34;82.39
71177;DHT22;58877;51.992;4.504;2022-10-31T02:53:17;12.26;82.49
71177;DHT22;58877;51.992;4.504;2022-10-31T02:58:37;12.20;82.71
71177;DHT22;58877;51.992;4.504;2022-10-31T03:09:48;11.99;83.09
71177;DHT22;58877;51.992;4.504;2022-10-31T03:12:28;11.99;83.25
71177;DHT22;58877;51.992;4.504;2022-10-31T03:15:15;11.94;83.36
71177;DHT22;58877;51.992;4.504;2022-10-31T03:18:09;11.94;83.41
71177;DHT22;58877;51.992;4.504;2022-10-31T03:20:46;12.07;83.61
71177;DHT22;58877;51.992;4.504;2022-10-31T03:23:19;12.12;83.52
71177;DHT22;58877;51.992;4.504;2022-10-31T03:25:47;12.06;83.51
71177;DHT22;58877;51.992;4.504;2022-10-31T03:28:18;12.06;83.57
71177;DHT22;58877;51.992;4.504;2022-10-31T03:30:48;12.00;83.76
71177;DHT22;58877;51.992;4.504;2022-10-31T03:33:24;11.97;84.03
71177;DHT22;58877;51.992;4.504;2022-10-31T03:35:53;11.90;83.88
71177;DHT22;58877;51.992;4.504;2022-10-31T03:38:22;11.85;83.89
71177;DHT22;58877;51.992;4.504;2022-10-31T03:40:51;11.83;83.86
71177;DHT22;58877;51.992;4.504;2022-10-31T03:43:24;11.85;83.92
71177;DHT22;58877;51.992;4.504;2022-10-31T03:45:51;11.87;84.01
71177;DHT22;58877;51.992;4.504;2022-10-31T03:48:19;11.87;84.01
71177;DHT22;58877;51.992;4.504;2022-10-31T03:50:57;11.91;84.00
71177;DHT22;58877;51.992;4.504;2022-10-31T03:53:33;11.91;83.97
71177;DHT22;58877;51.992;4.504;2022-10-31T03:56:06;11.93;83.99
71177;DHT22;58877;51.992;4.504;2022-10-31T03:58:43;11.94;84.01
71177;DHT22;58877;51.992;4.504;2022-10-31T04:01:15;11.93;84.28
71177;DHT22;58877;51.992;4.504;2022-10-31T04:03:44;11.80;84.29
71177;DHT22;58877;51.992;4.504;2022-10-31T04:06:13;11.83;84.41
71177;DHT22;58877;51.992;4.504;2022-10-31T04:08:49;11.85;84.24
71177;DHT22;58877;51.992;4.504;2022-10-31T04:11:23;11.85;84.26
71177;DHT22;58877;51.992;4.504;2022-10-31T04:13:55;11.80;84.38
71177;DHT22;58877;51.992;4.504;2022-10-31T04:16:23;11.79;84.40
71177;DHT22;58877;51.992;4.504;2022-10-31T04:18:49;11.76;84.40
71177;DHT22;58877;51.992;4.504;2022-10-31T04:21:15;11.72;84.45
71177;DHT22;58877;51.992;4.504;2022-10-31T04:23:42;11.75;84.65
71177;DHT22;58877;51.992;4.504;2022-10-31T04:26:12;11.82;84.47
71177;DHT22;58877;51.992;4.504;2022-10-31T04:28:38;11.77;84.31
71177;DHT22;58877;51.992;4.504;2022-10-31T04:31:05;11.75;84.39
71177;DHT22;58877;51.992;4.504;2022-10-31T04:33:30;11.70;84.26
71177;DHT22;58877;51.992;4.504;2022-10-31T04:35:56;11.66;84.51
71177;DHT22;58877;51.992;4.504;2022-10-31T04:38:22;11.67;84.45
71177;DHT22;58877;51.992;4.504;2022-10-31T04:40:47;11.69;84.70
71177;DHT22;58877;51.992;4.504;2022-10-31T04:43:13;11.65;84.37
71177;DHT22;58877;51.992;4.504;2022-10-31T04:45:38;11.59;84.27
71177;DHT22;58877;51.992;4.504;2022-10-31T04:48:04;11.59;84.25
71177;DHT22;58877;51.992;4.504;2022-10-31T04:50:30;11.70;84.17
71177;DHT22;58877;51.992;4.504;2022-10-31T04:52:55;11.65;83.73
71177;DHT22;58877;51.992;4.504;2022-10-31T04:55:21;11.51;83.75
71177;DHT22;58877;51.992;4.504;2022-10-31T04:57:48;11.39;83.84
71177;DHT22;58877;51.992;4.504;2022-10-31T05:00:18;11.31;83.96
71177;DHT22;58877;51.992;4.504;2022-10-31T05:02:47;11.25;83.86
71177;DHT22;58877;51.992;4.504;2022-10-31T05:05:15;11.18;83.95
71177;DHT22;58877;51.992;4.504;2022-10-31T05:07:42;11.11;84.14
71177;DHT22;58877;51.992;4.504;2022-10-31T05:10:13;11.10;84.42
71177;DHT22;58877;51.992;4.504;2022-10-31T05:12:50;11.12;84.64
71177;DHT22;58877;51.992;4.504;2022-10-31T05:15:17;11.15;84.57
71177;DHT22;58877;51.992;4.504;2022-10-31T05:17:43;11.15;84.77
71177;DHT22;58877;51.992;4.504;2022-10-31T05:20:11;11.21;85.49
71177;DHT22;58877;51.992;4.504;2022-10-31T05:22:36;11.42;85.91
71177;DHT22;58877;51.992;4.504;2022-10-31T05:25:02;11.46;85.65
71177;DHT22;58877;51.992;4.504;2022-10-31T05:27:28;11.38;84.40
71177;DHT22;58877;51.992;4.504;2022-10-31T05:29:53;11.21;84.02
71177;DHT22;58877;51.992;4.504;2022-10-31T05:32:19;11.10;84.20
71177;DHT22;58877;51.992;4.504;2022-10-31T05:34:44;11.08;84.51
71177;DHT22;58877;51.992;4.504;2022-10-31T05:37:10;11.08;85.18
71177;DHT22;58877;51.992;4.504;2022-10-31T05:39:35;11.10;85.26
71177;DHT22;58877;51.992;4.504;2022-10-31T05:42:01;11.05;84.54
71177;DHT22;58877;51.992;4.504;2022-10-31T05:44:26;10.98;84.50
71177;DHT22;58877;51.992;4.504;2022-10-31T05:46:52;10.91;84.48
71177;DHT22;58877;51.992;4.504;2022-10-31T05:49:17;10.87;84.56
71177;DHT22;58877;51.992;4.504;2022-10-31T05:51:43;10.90;84.76
71177;DHT22;58877;51.992;4.504;2022-10-31T05:54:09;10.95;84.88
71177;DHT22;58877;51.992;4.504;2022-10-31T05:56:34;11.00;84.96
71177;DHT22;58877;51.992;4.504;2022-10-31T05:59:00;11.02;84.95
71177;DHT22;58877;51.992;4.504;2022-10-31T06:01:25;11.14;84.90
71177;DHT22;58877;51.992;4.504;2022-10-31T06:03:51;11.26;84.94
71177;DHT22;58877;51.992;4.504;2022-10-31T06:06:16;11.34;84.83
71177;DHT22;58877;51.992;4.504;2022-10-31T06:08:42;11.34;84.78
71177;DHT22;58877;51.992;4.504;2022-10-31T06:11:08;11.28;84.80
71177;DHT22;58877;51.992;4.504;2022-10-31T06:13:33;11.24;84.81
71177;DHT22;58877;51.992;4.504;2022-10-31T06:15:59;11.25;84.89
71177;DHT22;58877;51.992;4.504;2022-10-31T06:18:25;11.26;84.74
71177;DHT22;58877;51.992;4.504;2022-10-31T06:20:50;11.21;84.70
71177;DHT22;58877;51.992;4.504;2022-10-31T06:23:16;11.15;84.79
71177;DHT22;58877;51.992;4.504;2022-10-31T06:25:41;11.14;84.87
71177;DHT22;58877;51.992;4.504;2022-10-31T06:28:07;11.12;84.95
71177;DHT22;58877;51.992;4.504;2022-10-31T06:30:33;11.07;84.86
71177;DHT22;58877;51.992;4.504;2022-10-31T06:33:05;10.97;84.77
71177;DHT22;58877;51.992;4.504;2022-10-31T06:35:31;10.92;85.05
71177;DHT22;58877;51.992;4.504;2022-10-31T06:37:57;10.88;84.84
71177;DHT22;58877;51.992;4.504;2022-10-31T06:40:23;10.81;84.78
71177;DHT22;58877;51.992;4.504;2022-10-31T06:42:59;10.77;84.72
71177;DHT22;58877;51.992;4.504;2022-10-31T06:45:26;10.77;85.00
71177;DHT22;58877;51.992;4.504;2022-10-31T06:47:53;10.75;84.87
71177;DHT22;58877;51.992;4.504;2022-10-31T06:50:21;10.75;84.89
71177;DHT22;58877;51.992;4.504;2022-10-31T06:52:53;10.74;84.81
71177;DHT22;58877;51.992;4.504;2022-10-31T06:55:20;10.71;84.79
71177;DHT22;58877;51.992;4.504;2022-10-31T06:57:56;10.78;84.82
71177;DHT22;58877;51.992;4.504;2022-10-31T07:00:21;10.81;85.04
71177;DHT22;58877;51.992;4.504;2022-10-31T07:02:55;10.88;85.09
71177;DHT22;58877;51.992;4.504;2022-10-31T07:05:20;10.95;85.02
71177;DHT22;58877;51.992;4.504;2022-10-31T07:07:46;10.95;85.02
71177;DHT22;58877;51.992;4.504;2022-10-31T07:10:12;10.97;85.13
71177;DHT22;58877;51.992;4.504;2022-10-31T07:12:38;11.08;85.06
71177;DHT22;58877;51.992;4.504;2022-10-31T07:15:04;11.08;84.93
71177;DHT22;58877;51.992;4.504;2022-10-31T07:17:29;11.12;84.96
71177;DHT22;58877;51.992;4.504;2022-10-31T07:19:55;11.16;85.06
71177;DHT22;58877;51.992;4.504;2022-10-31T07:22:23;11.31;85.19
71177;DHT22;58877;51.992;4.504;2022-10-31T07:24:49;11.40;85.19
71177;DHT22;58877;51.992;4.504;2022-10-31T07:27:14;11.52;85.25
71177;DHT22;58877;51.992;4.504;2022-10-31T07:29:40;11.61;85.19
71177;DHT22;58877;51.992;4.504;2022-10-31T07:32:05;11.69;85.13
71177;DHT22;58877;51.992;4.504;2022-10-31T07:34:31;11.79;85.30
71177;DHT22;58877;51.992;4.504;2022-10-31T07:36:57;11.90;85.31
71177;DHT22;58877;51.992;4.504;2022-10-31T07:39:22;12.06;85.22
71177;DHT22;58877;51.992;4.504;2022-10-31T07:41:48;12.19;85.25
71177;DHT22;58877;51.992;4.504;2022-10-31T07:44:13;12.33;85.24
71177;DHT22;58877;51.992;4.504;2022-10-31T07:46:39;12.37;85.10
71177;DHT22;58877;51.992;4.504;2022-10-31T07:49:04;12.43;85.13
71177;DHT22;58877;51.992;4.504;2022-10-31T07:51:30;12.54;85.21
71177;DHT22;58877;51.992;4.504;2022-10-31T07:53:55;12.58;85.25
71177;DHT22;58877;51.992;4.504;2022-10-31T07:56:21;12.65;85.22
71177;DHT22;58877;51.992;4.504;2022-10-31T07:58:46;12.74;85.19
71177;DHT22;58877;51.992;4.504;2022-10-31T08:01:12;12.74;84.95
71177;DHT22;58877;51.992;4.504;2022-10-31T08:03:38;12.75;84.98
71177;DHT22;58877;51.992;4.504;2022-10-31T08:06:03;12.80;85.12
71177;DHT22;58877;51.992;4.504;2022-10-31T08:08:29;12.87;85.31
71177;DHT22;58877;51.992;4.504;2022-10-31T08:10:55;12.89;85.53
71177;DHT22;58877;51.992;4.504;2022-10-31T08:13:21;13.04;85.49
71177;DHT22;58877;51.992;4.504;2022-10-31T08:15:47;13.12;85.51
71177;DHT22;58877;51.992;4.504;2022-10-31T08:18:16;13.23;85.46
71177;DHT22;58877;51.992;4.504;2022-10-31T08:20:43;13.34;85.43
71177;DHT22;58877;51.992;4.504;2022-10-31T08:23:10;13.38;85.31
71177;DHT22;58877;51.992;4.504;2022-10-31T08:25:37;13.45;85.25
71177;DHT22;58877;51.992;4.504;2022-10-31T08:28:03;13.50;85.14
71177;DHT22;58877;51.992;4.504;2022-10-31T08:30:32;13.58;85.10
71177;DHT22;58877;51.992;4.504;2022-10-31T08:33:09;13.65;85.08
71177;DHT22;58877;51.992;4.504;2022-10-31T08:35:35;13.69;85.04
71177;DHT22;58877;51.992;4.504;2022-10-31T08:38:00;13.80;85.33
71177;DHT22;58877;51.992;4.504;2022-10-31T08:40:29;13.91;85.29
71177;DHT22;58877;51.992;4.504;2022-10-31T08:43:15;14.07;85.41
71177;DHT22;58877;51.992;4.504;2022-10-31T08:45:42;14.20;85.15
71177;DHT22;58877;51.992;4.504;2022-10-31T08:48:13;14.30;85.19
71177;DHT22;58877;51.992;4.504;2022-10-31T08:50:39;14.34;85.00
71177;DHT22;58877;51.992;4.504;2022-10-31T08:53:11;14.35;85.22
71177;DHT22;58877;51.992;4.504;2022-10-31T08:55:38;14.41;85.49
71177;DHT22;58877;51.992;4.504;2022-10-31T08:58:07;14.52;85.35
71177;DHT22;58877;51.992;4.504;2022-10-31T09:00:34;14.69;85.59
71177;DHT22;58877;51.992;4.504;2022-10-31T09:03:04;14.75;85.13
71177;DHT22;58877;51.992;4.504;2022-10-31T09:05:30;14.79;85.27
71177;DHT22;58877;51.992;4.504;2022-10-31T09:07:57;14.81;85.06
71177;DHT22;58877;51.992;4.504;2022-10-31T09:10:24;14.88;85.25
71177;DHT22;58877;51.992;4.504;2022-10-31T09:13:01;15.05;85.14
71177;DHT22;58877;51.992;4.504;2022-10-31T09:15:28;15.06;84.91
71177;DHT22;58877;51.992;4.504;2022-10-31T09:17:54;15.16;84.93
71177;DHT22;58877;51.992;4.504;2022-10-31T09:20:20;15.22;84.45
71177;DHT22;58877;51.992;4.504;2022-10-31T09:22:46;15.23;84.42
71177;DHT22;58877;51.992;4.504;2022-10-31T09:25:12;15.39;84.48
71177;DHT22;58877;51.992;4.504;2022-10-31T09:27:37;15.40;83.86
71177;DHT22;58877;51.992;4.504;2022-10-31T09:30:04;15.49;84.27
71177;DHT22;58877;51.992;4.504;2022-10-31T09:32:29;15.57;83.85
71177;DHT22;58877;51.992;4.504;2022-10-31T09:34:55;15.60;83.49
71177;DHT22;58877;51.992;4.504;2022-10-31T09:37:20;15.64;83.05
71177;DHT22;58877;51.992;4.504;2022-10-31T09:39:46;15.67;83.33
71177;DHT22;58877;51.992;4.504;2022-10-31T09:45:23;15.87;83.23
71177;DHT22;58877;51.992;4.504;2022-10-31T09:48:04;15.97;82.73
71177;DHT22;58877;51.992;4.504;2022-10-31T09:50:46;16.05;82.62
71177;DHT22;58877;51.992;4.504;2022-10-31T09:53:35;16.11;81.95
71177;DHT22;58877;51.992;4.504;2022-10-31T09:56:08;16.18;82.03
71177;DHT22;58877;51.992;4.504;2022-10-31T09:58:42;16.27;81.77
71177;DHT22;58877;51.992;4.504;2022-10-31T10:01:28;16.25;81.37
71177;DHT22;58877;51.992;4.504;2022-10-31T10:04:05;16.27;81.38
71177;DHT22;58877;51.992;4.504;2022-10-31T10:06:40;16.34;80.97
71177;DHT22;58877;51.992;4.504;2022-10-31T10:09:09;16.37;81.21
71177;DHT22;58877;51.992;4.504;2022-10-31T10:12:00;16.38;81.14
71177;DHT22;58877;51.992;4.504;2022-10-31T10:25:39;17.02;80.67
71177;DHT22;58877;51.992;4.504;2022-10-31T10:30:53;17.37;79.10
71177;DHT22;58877;51.992;4.504;2022-10-31T10:35:59;17.53;78.66
71177;DHT22;58877;51.992;4.504;2022-10-31T10:39:01;17.66;78.51
71177;DHT22;58877;51.992;4.504;2022-10-31T10:41:31;17.69;77.99
71177;DHT22;58877;51.992;4.504;2022-10-31T10:43:57;17.67;77.15
71177;DHT22;58877;51.992;4.504;2022-10-31T10:47:02;17.53;77.37
71177;DHT22;58877;51.992;4.504;2022-10-31T10:49:51;17.63;77.56
71177;DHT22;58877;51.992;4.504;2022-10-31T10:58:07;17.54;77.47
71177;DHT22;58877;51.992;4.504;2022-10-31T11:00:45;17.50;77.49
71177;DHT22;58877;51.992;4.504;2022-10-31T11:03:13;17.51;77.74
71177;DHT22;58877;51.992;4.504;2022-10-31T11:05:49;17.57;77.57
71177;DHT22;58877;51.992;4.504;2022-10-31T11:08:32;17.70;77.14
71177;DHT22;58877;51.992;4.504;2022-10-31T11:11:07;17.77;76.82
71177;DHT22;58877;51.992;4.504;2022-10-31T11:13:35;17.80;76.98
71177;DHT22;58877;51.992;4.504;2022-10-31T11:16:08;17.93;76.43
71177;DHT22;58877;51.992;4.504;2022-10-31T11:18:39;17.98;76.02
71177;DHT22;58877;51.992;4.504;2022-10-31T11:21:05;18.07;75.79
71177;DHT22;58877;51.992;4.504;2022-10-31T11:23:43;17.98;75.65
71177;DHT22;58877;51.992;4.504;2022-10-31T11:26:20;18.01;75.38
71177;DHT22;58877;51.992;4.504;2022-10-31T11:28:59;17.88;75.47
71177;DHT22;58877;51.992;4.504;2022-10-31T11:31:29;17.81;75.82
71177;DHT22;58877;51.992;4.504;2022-10-31T11:34:00;17.81;75.69
71177;DHT22;58877;51.992;4.504;2022-10-31T11:36:35;17.63;76.07
71177;DHT22;58877;51.992;4.504;2022-10-31T11:39:04;17.57;76.20
71177;DHT22;58877;51.992;4.504;2022-10-31T11:41:34;17.53;76.51
71177;DHT22;58877;51.992;4.504;2022-10-31T11:44:12;17.43;77.19
71177;DHT22;58877;51.992;4.504;2022-10-31T11:46:56;17.44;77.30
71177;DHT22;58877;51.992;4.504;2022-10-31T11:49:46;17.59;77.43
71177;DHT22;58877;51.992;4.504;2022-10-31T11:52:23;17.70;76.85
71177;DHT22;58877;51.992;4.504;2022-10-31T11:55:01;17.81;76.93
71177;DHT22;58877;51.992;4.504;2022-10-31T11:57:41;17.90;76.64
71177;DHT22;58877;51.992;4.504;2022-10-31T12:00:35;17.95;76.78
71177;DHT22;58877;51.992;4.504;2022-10-31T12:05:39;18.11;76.39
71177;DHT22;58877;51.992;4.504;2022-10-31T12:08:08;18.22;76.31
71177;DHT22;58877;51.992;4.504;2022-10-31T12:16:25;18.34;75.57
71177;DHT22;58877;51.992;4.504;2022-10-31T12:22:08;18.47;75.84
71177;DHT22;58877;51.992;4.504;2022-10-31T12:27:34;18.41;75.62
71177;DHT22;58877;51.992;4.504;2022-10-31T12:35:34;18.47;75.80
71177;DHT22;58877;51.992;4.504;2022-10-31T12:46:27;18.60;75.66
71177;DHT22;58877;51.992;4.504;2022-10-31T12:56:56;18.49;75.03
71177;DHT22;58877;51.992;4.504;2022-10-31T13:02:02;18.35;75.58
71177;DHT22;58877;51.992;4.504;2022-10-31T13:04:47;18.32;76.20
71177;DHT22;58877;51.992;4.504;2022-10-31T13:10:51;18.37;76.15
71177;DHT22;58877;51.992;4.504;2022-10-31T13:13:35;18.39;75.92
71177;DHT22;58877;51.992;4.504;2022-10-31T13:18:40;18.37;76.33
71177;DHT22;58877;51.992;4.504;2022-10-31T13:21:21;18.27;76.42
71177;DHT22;58877;51.992;4.504;2022-10-31T13:23:50;18.28;76.71
71177;DHT22;58877;51.992;4.504;2022-10-31T13:26:42;18.35;76.61
71177;DHT22;58877;51.992;4.504;2022-10-31T13:29:30;18.37;76.90
71177;DHT22;58877;51.992;4.504;2022-10-31T13:31:54;18.44;76.73
71177;DHT22;58877;51.992;4.504;2022-10-31T13:34:37;18.41;76.59
71177;DHT22;58877;51.992;4.504;2022-10-31T13:45:12;18.29;77.00
71177;DHT22;58877;51.992;4.504;2022-10-31T13:47:37;18.32;77.04
71177;DHT22;58877;51.992;4.504;2022-10-31T13:50:24;18.25;77.10
71177;DHT22;58877;51.992;4.504;2022-10-31T13:52:50;18.24;77.35
71177;DHT22;58877;51.992;4.504;2022-10-31T13:55:39;18.19;77.24
71177;DHT22;58877;51.992;4.504;2022-10-31T14:01:21;18.00;78.14
71177;DHT22;58877;51.992;4.504;2022-10-31T14:04:00;18.02;78.22
71177;DHT22;58877;51.992;4.504;2022-10-31T14:09:21;17.97;78.45
71177;DHT22;58877;51.992;4.504;2022-10-31T14:11:49;18.01;78.46
71177;DHT22;58877;51.992;4.504;2022-10-31T14:14:18;18.08;78.48
71177;DHT22;58877;51.992;4.504;2022-10-31T14:16:46;18.09;78.44
71177;DHT22;58877;51.992;4.504;2022-10-31T14:19:20;18.02;78.40
71177;DHT22;58877;51.992;4.504;2022-10-31T14:21:47;17.95;78.78
71177;DHT22;58877;51.992;4.504;2022-10-31T14:27:03;17.95;79.09
71177;DHT22;58877;51.992;4.504;2022-10-31T14:29:34;18.02;78.86
71177;DHT22;58877;51.992;4.504;2022-10-31T14:34:58;18.02;78.91
71177;DHT22;58877;51.992;4.504;2022-10-31T14:46:00;17.87;79.34
71177;DHT22;58877;51.992;4.504;2022-10-31T14:48:53;17.75;79.70
71177;DHT22;58877;51.992;4.504;2022-10-31T14:51:27;17.66;80.16
71177;DHT22;58877;51.992;4.504;2022-10-31T14:53:56;17.66;80.27
71177;DHT22;58877;51.992;4.504;2022-10-31T14:56:32;17.66;80.40
71177;DHT22;58877;51.992;4.504;2022-10-31T14:59:08;17.64;80.36
71177;DHT22;58877;51.992;4.504;2022-10-31T15:01:36;17.64;80.20
71177;DHT22;58877;51.992;4.504;2022-10-31T15:04:18;17.64;80.24
71177;DHT22;58877;51.992;4.504;2022-10-31T15:06:50;17.57;80.41
71177;DHT22;58877;51.992;4.504;2022-10-31T15:09:31;17.55;80.37
71177;DHT22;58877;51.992;4.504;2022-10-31T15:12:16;17.49;80.69
71177;DHT22;58877;51.992;4.504;2022-10-31T15:14:46;17.43;81.04
71177;DHT22;58877;51.992;4.504;2022-10-31T15:17:12;17.43;81.00
71177;DHT22;58877;51.992;4.504;2022-10-31T15:19:38;17.40;81.13
71177;DHT22;58877;51.992;4.504;2022-10-31T15:22:06;17.37;81.18
71177;DHT22;58877;51.992;4.504;2022-10-31T15:24:37;17.34;81.42
71177;DHT22;58877;51.992;4.504;2022-10-31T15:27:04;17.34;81.42
71177;DHT22;58877;51.992;4.504;2022-10-31T15:29:31;17.34;81.36
71177;DHT22;58877;51.992;4.504;2022-10-31T15:32:19;17.33;81.43
71177;DHT22;58877;51.992;4.504;2022-10-31T15:34:46;17.37;81.38
71177;DHT22;58877;51.992;4.504;2022-10-31T15:37:13;17.43;81.05
71177;DHT22;58877;51.992;4.504;2022-10-31T15:39:41;17.39;81.39
71177;DHT22;58877;51.992;4.504;2022-10-31T15:42:29;17.36;81.36
71177;DHT22;58877;51.992;4.504;2022-10-31T15:45:12;17.34;81.39
71177;DHT22;58877;51.992;4.504;2022-10-31T15:47:53;17.24;81.59
71177;DHT22;58877;51.992;4.504;2022-10-31T15:52:51;17.27;81.78
71177;DHT22;58877;51.992;4.504;2022-10-31T15:57:46;17.23;81.55
71177;DHT22;58877;51.992;4.504;2022-10-31T16:00:29;17.19;81.62
71177;DHT22;58877;51.992;4.504;2022-10-31T16:03:26;17.19;81.51
71177;DHT22;58877;51.992;4.504;2022-10-31T16:05:53;17.13;81.47
71177;DHT22;58877;51.992;4.504;2022-10-31T16:10:58;17.00;81.90
71177;DHT22;58877;51.992;4.504;2022-10-31T16:13:28;17.03;82.00
71177;DHT22;58877;51.992;4.504;2022-10-31T16:16:02;16.93;82.11
71177;DHT22;58877;51.992;4.504;2022-10-31T16:18:36;16.90;82.25
71177;DHT22;58877;51.992;4.504;2022-10-31T16:21:02;16.85;82.51
71177;DHT22;58877;51.992;4.504;2022-10-31T16:23:28;16.80;82.86
71177;DHT22;58877;51.992;4.504;2022-10-31T16:25:54;16.79;82.94
71177;DHT22;58877;51.992;4.504;2022-10-31T16:28:22;16.78;83.09
71177;DHT22;58877;51.992;4.504;2022-10-31T16:30:51;16.76;82.94
71177;DHT22;58877;51.992;4.504;2022-10-31T16:35:49;16.82;83.02
71177;DHT22;58877;51.992;4.504;2022-10-31T16:38:15;16.75;83.15
71177;DHT22;58877;51.992;4.504;2022-10-31T16:40:41;16.73;83.24
71177;DHT22;58877;51.992;4.504;2022-10-31T16:43:11;16.76;83.32
71177;DHT22;58877;51.992;4.504;2022-10-31T16:45:43;16.75;83.11
71177;DHT22;58877;51.992;4.504;2022-10-31T16:48:12;16.76;83.08
71177;DHT22;58877;51.992;4.504;2022-10-31T16:50:41;16.75;83.08
71177;DHT22;58877;51.992;4.504;2022-10-31T16:53:08;16.73;82.98
71177;DHT22;58877;51.992;4.504;2022-10-31T16:55:42;16.66;83.02
71177;DHT22;58877;51.992;4.504;2022-10-31T16:58:15;16.66;83.02
71177;DHT22;58877;51.992;4.504;2022-10-31T17:00:42;16.62;82.91
71177;DHT22;58877;51.992;4.504;2022-10-31T17:03:08;16.59;82.84
71177;DHT22;58877;51.992;4.504;2022-10-31T17:05:34;16.56;82.65
71177;DHT22;58877;51.992;4.504;2022-10-31T17:08:00;16.55;82.38
71177;DHT22;58877;51.992;4.504;2022-10-31T17:10:26;16.44;82.61
71177;DHT22;58877;51.992;4.504;2022-10-31T17:12:53;16.40;82.55
71177;DHT22;58877;51.992;4.504;2022-10-31T17:15:23;16.34;82.59
71177;DHT22;58877;51.992;4.504;2022-10-31T17:17:49;16.32;82.62
71177;DHT22;58877;51.992;4.504;2022-10-31T17:20:29;16.31;82.50
71177;DHT22;58877;51.992;4.504;2022-10-31T17:22:56;16.22;82.35
71177;DHT22;58877;51.992;4.504;2022-10-31T17:25:28;16.14;82.69
71177;DHT22;58877;51.992;4.504;2022-10-31T17:27:54;16.17;82.48
71177;DHT22;58877;51.992;4.504;2022-10-31T17:30:21;16.13;82.46
71177;DHT22;58877;51.992;4.504;2022-10-31T17:32:47;16.11;82.50
71177;DHT22;58877;51.992;4.504;2022-10-31T17:35:15;16.11;82.33
71177;DHT22;58877;51.992;4.504;2022-10-31T17:37:43;16.05;82.27
71177;DHT22;58877;51.992;4.504;2022-10-31T17:40:10;16.03;82.32
71177;DHT22;58877;51.992;4.504;2022-10-31T17:42:36;15.98;82.41
71177;DHT22;58877;51.992;4.504;2022-10-31T17:45:04;15.93;82.51
71177;DHT22;58877;51.992;4.504;2022-10-31T17:47:30;15.89;82.51
71177;DHT22;58877;51.992;4.504;2022-10-31T17:49:55;15.87;82.57
71177;DHT22;58877;51.992;4.504;2022-10-31T17:52:21;15.87;82.56
71177;DHT22;58877;51.992;4.504;2022-10-31T17:54:46;15.89;82.36
71177;DHT22;58877;51.992;4.504;2022-10-31T17:57:12;15.86;82.42
71177;DHT22;58877;51.992;4.504;2022-10-31T17:59:37;15.86;82.23
71177;DHT22;58877;51.992;4.504;2022-10-31T18:02:03;15.86;82.11